createdAt,value
2019-03-29T00:02:13.737Z,87.22
2019-03-29T00:08:18.324Z,86.38
2019-03-29T00:14:23.663Z,85.63
2019-03-29T00:20:28.316Z,85.77
2019-03-29T00:26:32.899Z,87.09
2019-03-29T00:32:37.514Z,87.65
2019-03-29T00:38:42.103Z,87.18
2019-03-29T00:44:46.703Z,87.09
2019-03-29T00:50:51.254Z,86.74
2019-03-29T00:56:55.905Z,86.65
2019-03-29T01:03:00.472Z,85.54
2019-03-29T01:09:06.240Z,85.31
2019-03-29T01:15:11.285Z,85.27
2019-03-29T01:21:15.855Z,85.33
2019-03-29T01:27:20.410Z,84.76
2019-03-29T01:33:25.080Z,85.04
2019-03-29T01:39:29.940Z,85.49
2019-03-29T01:45:34.579Z,86.31
2019-03-29T01:51:39.137Z,85.33
2019-03-29T01:57:43.790Z,86.09
2019-03-29T02:03:48.378Z,85.78
2019-03-29T02:09:52.926Z,85.73
2019-03-29T02:15:57.490Z,86.70
2019-03-29T02:22:02.114Z,85.65
2019-03-29T02:28:06.777Z,87.04
2019-03-29T02:34:11.354Z,87.55
2019-03-29T02:40:16.151Z,87.15
2019-03-29T02:46:20.775Z,86.72
2019-03-29T02:52:25.340Z,86.71
2019-03-29T02:58:29.927Z,87.29
2019-03-29T03:04:34.460Z,86.89
2019-03-29T03:10:39.037Z,86.57
2019-03-29T03:16:43.666Z,86.68
2019-03-29T03:22:48.369Z,86.13
2019-03-29T03:28:52.951Z,86.28
2019-03-29T03:34:57.581Z,86.94
2019-03-29T03:41:02.313Z,86.65
2019-03-29T03:47:06.863Z,86.54
2019-03-29T03:53:12.011Z,85.99
2019-03-29T03:59:16.734Z,86.23
2019-03-29T04:05:21.299Z,86.42
2019-03-29T04:11:25.878Z,86.00
2019-03-29T04:17:30.520Z,85.57
2019-03-29T04:23:35.085Z,85.41
2019-03-29T04:29:39.643Z,85.71
2019-03-29T04:35:44.350Z,85.96
2019-03-29T04:41:50.077Z,85.25
2019-03-29T04:47:54.709Z,85.67
2019-03-29T04:53:59.295Z,85.90
2019-03-29T05:00:04.303Z,85.25
2019-03-29T05:06:08.877Z,85.74
2019-03-29T05:12:13.435Z,86.26
2019-03-29T05:18:18.406Z,86.58
2019-03-29T05:24:22.970Z,86.63
2019-03-29T05:30:27.528Z,86.65
2019-03-29T05:36:32.100Z,86.45
2019-03-29T05:42:36.657Z,85.59
2019-03-29T05:48:41.282Z,86.37
2019-03-29T05:54:45.841Z,86.56
2019-03-29T06:00:50.401Z,86.49
2019-03-29T06:06:54.981Z,86.01
2019-03-29T06:12:59.558Z,85.52
2019-03-29T06:19:04.261Z,85.39
2019-03-29T06:25:09.755Z,85.36
2019-03-29T06:31:14.502Z,85.95
2019-03-29T06:37:20.983Z,85.97
2019-03-29T06:43:25.552Z,83.73
2019-03-29T06:49:30.129Z,83.16
2019-03-29T06:55:34.766Z,82.35
2019-03-29T07:01:39.405Z,80.91
2019-03-29T07:07:44.660Z,77.96
2019-03-29T07:13:57.257Z,75.26
2019-03-29T07:19:55.924Z,67.27
2019-03-29T07:26:00.486Z,63.43
2019-03-29T07:32:05.066Z,52.24
2019-03-29T07:38:09.645Z,54.74
2019-03-29T07:44:14.210Z,61.13
2019-03-29T07:50:19.252Z,63.05
2019-03-29T07:56:24.032Z,63.58
2019-03-29T08:02:29.020Z,63.28
2019-03-29T08:08:34.469Z,62.55
2019-03-29T08:14:39.630Z,61.74
2019-03-29T08:20:44.802Z,62.50
2019-03-29T08:26:49.658Z,61.56
2019-03-29T08:32:54.228Z,59.38
2019-03-29T08:38:58.791Z,58.92
2019-03-29T08:45:03.759Z,56.80
2019-03-29T08:51:08.343Z,55.32
2019-03-29T08:57:12.995Z,55.05
2019-03-29T09:03:17.720Z,51.55
2019-03-29T09:09:22.425Z,47.54
2019-03-29T09:15:27.083Z,44.56
2019-03-29T09:21:31.647Z,42.94
2019-03-29T09:27:36.227Z,40.15
2019-03-29T09:33:41.084Z,36.46
2019-03-29T09:39:45.673Z,36.15
2019-03-29T09:45:50.316Z,33.35
2019-03-29T09:51:54.917Z,29.17
2019-03-29T09:57:59.719Z,27.33
2019-03-29T10:04:04.445Z,24.14
2019-03-29T10:10:09.938Z,23.27
2019-03-29T10:16:14.708Z,24.58
2019-03-29T10:22:20.118Z,28.95
2019-03-29T10:28:24.895Z,28.08
2019-03-29T10:34:29.980Z,26.54
2019-03-29T10:40:34.871Z,29.92
2019-03-29T10:46:39.505Z,31.03
2019-03-29T10:52:44.093Z,30.86
2019-03-29T10:58:48.668Z,27.34
2019-03-29T11:04:53.228Z,28.26
2019-03-29T11:10:57.791Z,27.82
2019-03-29T11:17:02.363Z,26.02
2019-03-29T11:23:07.095Z,24.53
2019-03-29T11:29:11.736Z,23.52
2019-03-29T11:35:16.373Z,24.35
2019-03-29T11:41:21.010Z,25.80
2019-03-29T11:47:25.577Z,24.83
2019-03-29T11:53:30.179Z,26.67
2019-03-29T11:59:34.722Z,25.56
2019-03-29T12:05:39.631Z,24.90
2019-03-29T12:11:44.187Z,24.01
2019-03-29T12:17:48.757Z,24.52
2019-03-29T12:23:53.394Z,24.35
2019-03-29T12:29:57.951Z,23.43
2019-03-29T12:36:02.626Z,24.08
2019-03-29T12:42:07.176Z,23.21
2019-03-29T12:48:11.745Z,23.57
2019-03-29T12:54:17.397Z,24.22
2019-03-29T13:00:22.223Z,23.42
2019-03-29T13:06:26.862Z,24.57
2019-03-29T13:12:31.512Z,23.71
2019-03-29T13:18:36.202Z,23.52
2019-03-29T13:24:40.885Z,22.67
2019-03-29T13:30:45.699Z,23.26
2019-03-29T13:36:50.345Z,22.88
2019-03-29T13:42:54.927Z,23.72
2019-03-29T13:48:59.536Z,22.94
2019-03-29T13:55:04.640Z,23.16
2019-03-29T14:01:09.265Z,21.98
2019-03-29T14:07:13.837Z,22.96
2019-03-29T14:13:19.791Z,22.84
2019-03-29T14:19:25.923Z,23.22
2019-03-29T14:25:30.719Z,24.51
2019-03-29T14:31:35.273Z,22.88
2019-03-29T14:37:39.837Z,23.29
2019-03-29T14:43:44.390Z,23.64
2019-03-29T14:49:48.973Z,22.74
2019-03-29T14:55:53.617Z,21.85
2019-03-29T15:01:58.907Z,22.72
2019-03-29T15:08:03.818Z,21.59
2019-03-29T15:14:08.459Z,21.92
2019-03-29T15:20:14.859Z,21.31
2019-03-29T15:26:19.760Z,21.20
2019-03-29T15:32:24.326Z,21.12
2019-03-29T15:38:28.885Z,20.90
2019-03-29T15:44:33.844Z,20.93
2019-03-29T15:50:38.403Z,21.24
2019-03-29T15:56:42.979Z,21.02
2019-03-29T16:02:47.652Z,21.46
2019-03-29T16:08:52.240Z,22.34
2019-03-29T16:14:56.820Z,21.38
2019-03-29T16:21:01.398Z,21.28
2019-03-29T16:27:06.066Z,22.16
2019-03-29T16:33:10.605Z,22.72
2019-03-29T16:39:15.240Z,22.87
2019-03-29T16:45:19.886Z,23.08
2019-03-29T16:51:24.540Z,23.52
2019-03-29T16:57:29.176Z,23.82
2019-03-29T17:03:33.808Z,24.59
2019-03-29T17:09:38.371Z,25.58
2019-03-29T17:15:42.930Z,27.17
2019-03-29T17:21:47.567Z,28.84
2019-03-29T17:27:52.420Z,30.85
2019-03-29T17:33:58.706Z,33.20
2019-03-29T17:40:03.629Z,35.46
2019-03-29T17:46:16.240Z,39.37
2019-03-29T17:52:14.504Z,44.14
2019-03-29T17:58:19.147Z,48.72
2019-03-29T18:04:23.710Z,51.99
2019-03-29T18:10:29.795Z,54.72
2019-03-29T18:16:34.355Z,57.03
2019-03-29T18:22:39.001Z,59.39
2019-03-29T18:28:43.646Z,61.49
2019-03-29T18:34:48.681Z,63.17
2019-03-29T18:40:53.245Z,64.17
2019-03-29T18:46:57.902Z,64.92
2019-03-29T18:53:02.611Z,66.46
2019-03-29T18:59:07.224Z,66.95
2019-03-29T19:05:24.784Z,67.74
2019-03-29T19:11:29.346Z,68.25
2019-03-29T19:17:33.928Z,68.13
2019-03-29T19:23:38.516Z,68.53
2019-03-29T19:29:43.238Z,68.21
2019-03-29T19:35:47.804Z,68.68
2019-03-29T19:41:52.448Z,68.46
2019-03-29T19:47:57.019Z,68.91
2019-03-29T19:54:07.494Z,68.68
2019-03-29T20:00:14.017Z,69.10
2019-03-29T20:06:18.609Z,69.71
2019-03-29T20:12:25.146Z,69.97
2019-03-29T20:18:29.645Z,70.18
2019-03-29T20:24:34.274Z,70.67
2019-03-29T20:30:38.839Z,70.59
2019-03-29T20:36:43.422Z,71.49
2019-03-29T20:42:48.244Z,71.96
2019-03-29T20:48:52.943Z,72.31
2019-03-29T20:54:57.495Z,72.65
2019-03-29T21:01:02.077Z,73.00
2019-03-29T21:07:06.657Z,73.37
2019-03-29T21:13:11.247Z,73.35
2019-03-29T21:19:15.803Z,73.72
2019-03-29T21:25:20.369Z,74.08
2019-03-29T21:31:24.933Z,74.56
2019-03-29T21:37:29.519Z,75.25
2019-03-29T21:43:34.058Z,76.12
2019-03-29T21:49:38.635Z,76.89
2019-03-29T21:55:43.171Z,77.39
2019-03-29T22:01:47.744Z,77.31
2019-03-29T22:07:52.281Z,77.55
2019-03-29T22:13:56.929Z,77.79
2019-03-29T22:20:01.541Z,77.76
2019-03-29T22:26:06.086Z,77.85
2019-03-29T22:32:10.644Z,78.19
2019-03-29T22:38:15.269Z,78.31
2019-03-29T22:44:19.871Z,78.63
2019-03-29T22:50:24.497Z,79.30
2019-03-29T22:56:29.115Z,80.28
2019-03-29T23:02:33.881Z,81.29
2019-03-29T23:08:38.487Z,80.99
2019-03-29T23:14:43.214Z,82.84
2019-03-29T23:20:47.790Z,82.80
2019-03-29T23:26:52.413Z,82.42
2019-03-29T23:32:57.051Z,80.79
2019-03-29T23:39:01.598Z,81.31
2019-03-29T23:45:09.108Z,82.50
2019-03-29T23:51:13.652Z,81.37
2019-03-29T23:57:18.281Z,80.49
